Time;durP1;ratioP1;P1;durP2;ratioP2;P2;SDS_P1;SDS_P2;PMS_P1;PMS_P2;Temp;Humidity;BMP_temperature;BMP_pressure;BME280_temperature;BME280_humidity;BME280_pressure;Samples;Min_cycle;Max_cycle;Signal;HPM_P1;HPM_P2
2023/04/09 00:02:22;;;;;;;77.15;41.33;;;9.60;99.90;;;;;;4974477;28;20045;-74
2023/04/09 00:04:48;;;;;;;74.68;41.00;;;9.50;99.90;;;;;;4965504;28;20121;-74
2023/04/09 00:07:16;;;;;;;77.70;41.90;;;9.50;99.90;;;;;;4958238;28;20039;-74
2023/04/09 00:09:41;;;;;;;75.95;42.65;;;9.50;99.90;;;;;;4962398;28;20042;-75
2023/04/09 00:12:07;;;;;;;73.95;41.78;;;9.50;99.90;;;;;;4973560;28;20058;-74
2023/04/09 00:14:33;;;;;;;73.95;41.53;;;9.50;99.90;;;;;;4954382;28;20041;-75
2023/04/09 00:16:59;;;;;;;72.93;41.83;;;9.50;99.90;;;;;;4948944;28;20046;-74
2023/04/09 00:19:25;;;;;;;75.60;41.15;;;9.50;99.90;;;;;;4951531;28;20100;-74
2023/04/09 00:21:51;;;;;;;70.80;39.83;;;9.50;99.90;;;;;;4957718;28;20491;-74
2023/04/09 00:24:17;;;;;;;69.07;39.83;;;9.50;99.90;;;;;;4974654;28;20040;-76
2023/04/09 00:26:42;;;;;;;68.57;39.35;;;9.50;99.90;;;;;;4947257;28;20062;-75
2023/04/09 00:29:08;;;;;;;67.45;38.80;;;9.50;99.90;;;;;;4969635;28;20042;-74
2023/04/09 00:31:33;;;;;;;66.82;40.10;;;9.50;99.90;;;;;;4967423;28;20068;-74
2023/04/09 00:33:59;;;;;;;65.50;37.50;;;9.50;99.90;;;;;;4970843;28;20398;-74
2023/04/09 00:36:25;;;;;;;64.60;38.50;;;9.50;99.90;;;;;;4968203;28;20101;-76
2023/04/09 00:38:52;;;;;;;66.35;37.85;;;9.50;99.90;;;;;;4965763;28;20041;-74
2023/04/09 00:41:18;;;;;;;64.63;36.85;;;9.40;99.90;;;;;;4989210;28;20526;-74
2023/04/09 00:43:43;;;;;;;64.63;36.35;;;9.50;99.90;;;;;;4965374;28;20558;-74
2023/04/09 00:46:09;;;;;;;58.15;35.22;;;9.40;99.90;;;;;;4968229;28;20121;-76
2023/04/09 00:48:35;;;;;;;60.92;34.97;;;9.40;99.90;;;;;;4962118;28;20448;-78
2023/04/09 00:51:00;;;;;;;62.45;34.97;;;10.30;99.90;;;;;;4966686;28;20108;-75
2023/04/09 00:53:26;;;;;;;61.13;35.25;;;8.90;99.90;;;;;;4963009;28;20034;-75
2023/04/09 00:55:52;;;;;;;64.90;35.33;;;9.40;99.90;;;;;;4940295;28;20097;-75
2023/04/09 00:58:18;;;;;;;64.75;34.47;;;9.40;99.90;;;;;;4969119;28;20042;-76
2023/04/09 01:00:43;;;;;;;63.97;35.72;;;9.40;99.90;;;;;;4970900;28;20042;-77
2023/04/09 01:03:09;;;;;;;67.53;36.30;;;9.40;99.90;;;;;;4984383;28;20085;-75
2023/04/09 01:05:49;;;;;;;57.67;32.53;;;9.90;99.90;;;;;;4970543;28;20051;-76
2023/04/09 01:08:23;;;;;;;61.78;33.08;;;9.40;99.90;;;;;;4960909;28;20037;-75
2023/04/09 01:11:14;;;;;;;58.03;33.22;;;9.30;99.90;;;;;;4959486;28;20096;-76
2023/04/09 01:14:22;;;;;;;62.63;33.42;;;9.30;99.90;;;;;;4964221;28;20042;-75
2023/04/09 01:16:54;;;;;;;61.95;33.00;;;9.30;99.90;;;;;;4974155;28;20498;-79
2023/04/09 01:19:47;;;;;;;57.17;32.92;;;9.30;99.90;;;;;;4971315;28;20038;-75
2023/04/09 01:22:28;;;;;;;;;;;9.30;99.90;;;;;;4975533;28;20061;-76
2023/04/09 01:25:08;;;;;;;53.75;29.48;;;9.30;99.90;;;;;;4975901;28;20455;-76
2023/04/09 01:27:45;;;;;;;54.78;29.15;;;9.20;99.90;;;;;;4953162;28;20101;-75
2023/04/09 01:30:14;;;;;;;50.42;27.58;;;9.20;99.90;;;;;;4960736;28;20046;-75
2023/04/09 01:32:41;;;;;;;43.83;26.23;;;9.30;99.90;;;;;;4967396;28;20042;-78
2023/04/09 01:35:08;;;;;;;44.72;26.52;;;9.20;99.90;;;;;;4970223;28;20663;-75
2023/04/09 01:37:34;;;;;;;44.63;25.98;;;9.30;99.90;;;;;;4975952;28;20528;-76
2023/04/09 01:40:00;;;;;;;51.33;27.25;;;9.20;99.90;;;;;;4976075;28;20081;-75
2023/04/09 01:42:27;;;;;;;49.00;26.42;;;9.20;99.90;;;;;;4972757;28;20057;-75
2023/04/09 01:44:53;;;;;;;46.00;26.67;;;9.20;99.90;;;;;;4982581;28;20038;-77
2023/04/09 01:47:19;;;;;;;46.00;26.48;;;9.20;99.90;;;;;;4967230;28;20053;-78
2023/04/09 01:49:45;;;;;;;44.67;25.75;;;9.20;99.90;;;;;;4961945;28;20076;-79
2023/04/09 01:52:11;;;;;;;46.15;26.02;;;9.20;99.90;;;;;;4980427;28;20074;-75
2023/04/09 01:54:36;;;;;;;47.92;26.45;;;9.20;99.90;;;;;;4963468;28;20047;-75
2023/04/09 01:57:02;;;;;;;43.17;24.95;;;9.20;99.90;;;;;;4974513;28;20069;-76
2023/04/09 01:59:28;;;;;;;43.05;25.55;;;9.20;99.90;;;;;;4978576;28;20514;-75
2023/04/09 02:02:06;;;;;;;42.70;25.25;;;9.20;99.90;;;;;;4952673;28;20553;-79
2023/04/09 02:04:35;;;;;;;47.65;26.52;;;9.20;99.90;;;;;;4966952;28;20066;-75
2023/04/09 02:07:05;;;;;;;46.78;25.45;;;9.20;99.90;;;;;;4941522;28;20047;-75
2023/04/09 02:09:35;;;;;;;42.72;24.45;;;9.20;99.90;;;;;;4976230;28;20049;-75
2023/04/09 02:12:04;;;;;;;44.78;25.30;;;9.20;99.90;;;;;;4970359;28;20046;-75
2023/04/09 02:14:32;;;;;;;42.60;24.30;;;9.20;99.90;;;;;;4970261;28;20065;-76
2023/04/09 02:16:58;;;;;;;43.80;24.08;;;9.20;99.90;;;;;;4977080;28;20491;-75
2023/04/09 02:19:24;;;;;;;46.85;24.88;;;9.10;99.90;;;;;;4969247;28;20065;-76
2023/04/09 02:21:49;;;;;;;44.47;24.77;;;9.20;99.90;;;;;;4966127;28;20038;-75
2023/04/09 02:24:15;;;;;;;47.28;26.02;;;9.10;99.90;;;;;;4971601;28;20136;-75
2023/04/09 02:26:40;;;;;;;45.65;25.42;;;9.20;99.90;;;;;;4973569;28;20042;-75
2023/04/09 02:29:06;;;;;;;42.67;24.08;;;9.20;99.90;;;;;;4970725;28;20046;-77
2023/04/09 02:31:31;;;;;;;42.75;24.75;;;9.10;99.90;;;;;;4985326;28;20046;-76
2023/04/09 02:33:57;;;;;;;44.05;24.83;;;9.20;99.90;;;;;;4966215;28;20038;-75
2023/04/09 02:36:23;;;;;;;43.05;24.73;;;9.10;99.90;;;;;;4971047;28;20131;-77
2023/04/09 02:38:48;;;;;;;47.78;25.45;;;9.10;99.90;;;;;;4983282;28;20050;-78
2023/04/09 02:41:14;;;;;;;44.47;24.63;;;9.10;99.90;;;;;;4967455;28;20053;-75
2023/04/09 02:43:39;;;;;;;44.20;25.35;;;9.10;99.90;;;;;;4957844;28;20388;-75
2023/04/09 02:46:05;;;;;;;46.45;25.98;;;9.10;99.90;;;;;;4964499;28;20030;-75
2023/04/09 02:48:31;;;;;;;45.00;23.80;;;9.10;99.90;;;;;;4966717;28;20138;-80
2023/04/09 02:50:57;;;;;;;49.10;25.98;;;9.10;99.90;;;;;;4967829;28;20038;-76
2023/04/09 02:53:23;;;;;;;45.35;25.42;;;9.10;99.90;;;;;;4973698;28;20046;-78
2023/04/09 02:55:48;;;;;;;44.83;24.55;;;9.10;99.90;;;;;;4974143;28;20038;-75
2023/04/09 02:58:14;;;;;;;41.80;24.15;;;9.10;99.90;;;;;;4976135;28;20065;-75
2023/04/09 03:00:40;;;;;;;43.30;25.52;;;9.00;99.90;;;;;;4972996;28;20042;-75
2023/04/09 03:03:05;;;;;;;45.83;25.52;;;9.00;99.90;;;;;;4988501;28;20047;-76
2023/04/09 03:05:31;;;;;;;43.33;24.52;;;9.00;99.90;;;;;;4964574;28;20039;-75
2023/04/09 03:07:56;;;;;;;48.40;25.40;;;9.20;99.90;;;;;;4965341;28;20395;-76
2023/04/09 03:10:22;;;;;;;50.40;26.52;;;9.00;99.90;;;;;;4957209;28;20039;-75
2023/04/09 03:12:47;;;;;;;48.05;25.38;;;9.00;99.90;;;;;;4981507;28;20097;-78
2023/04/09 03:15:13;;;;;;;51.58;26.55;;;9.00;99.90;;;;;;4984721;28;20041;-75
2023/04/09 03:17:39;;;;;;;45.88;26.42;;;9.00;99.90;;;;;;4961728;28;20041;-75
2023/04/09 03:20:08;;;;;;;52.15;26.90;;;9.00;99.90;;;;;;4977332;28;20035;-74
2023/04/09 03:22:38;;;;;;;47.95;25.80;;;9.00;99.90;;;;;;4954722;28;20046;-74
2023/04/09 03:25:04;;;;;;;51.83;27.30;;;9.00;99.90;;;;;;4967099;28;20038;-74
2023/04/09 03:27:31;;;;;;;48.13;26.77;;;9.00;99.90;;;;;;4973629;28;20051;-75
2023/04/09 03:29:57;;;;;;;49.35;27.48;;;9.00;99.90;;;;;;4971126;28;20039;-74
2023/04/09 03:32:22;;;;;;;50.08;27.80;;;9.00;99.90;;;;;;4985022;28;20031;-74
2023/04/09 03:34:48;;;;;;;51.05;27.45;;;9.00;99.90;;;;;;4971710;28;20627;-74
2023/04/09 03:37:13;;;;;;;49.35;27.00;;;9.00;99.90;;;;;;4988443;28;20046;-74
2023/04/09 03:39:39;;;;;;;49.10;27.92;;;9.00;99.90;;;;;;4967910;28;20046;-74
2023/04/09 03:42:05;;;;;;;47.35;27.55;;;9.00;99.90;;;;;;4979684;28;20042;-74
2023/04/09 03:44:30;;;;;;;48.55;26.77;;;9.00;99.90;;;;;;4975517;28;20101;-74
2023/04/09 03:46:56;;;;;;;48.75;26.83;;;9.00;99.90;;;;;;4979649;28;20096;-74
2023/04/09 03:49:21;;;;;;;50.00;27.23;;;9.00;99.90;;;;;;4977330;28;20049;-74
2023/04/09 03:51:47;;;;;;;50.03;27.75;;;9.00;99.90;;;;;;4958950;28;20074;-74
2023/04/09 03:54:12;;;;;;;51.90;28.90;;;9.00;99.90;;;;;;4959794;28;20039;-74
2023/04/09 03:56:38;;;;;;;51.90;28.65;;;9.00;99.90;;;;;;4950484;28;20038;-74
2023/04/09 03:59:04;;;;;;;52.97;28.58;;;9.00;99.90;;;;;;4966241;28;20069;-74
2023/04/09 04:01:29;;;;;;;54.53;29.70;;;8.90;99.90;;;;;;4969210;28;20045;-74
2023/04/09 04:03:55;;;;;;;50.10;28.05;;;8.90;99.90;;;;;;4976035;28;20039;-74
2023/04/09 04:06:20;;;;;;;49.78;28.40;;;8.90;99.90;;;;;;4962612;28;20446;-75
2023/04/09 04:08:46;;;;;;;50.45;27.65;;;8.90;99.90;;;;;;4961041;28;20039;-74
2023/04/09 04:11:11;;;;;;;52.70;28.02;;;8.90;99.90;;;;;;4971782;28;20038;-75
2023/04/09 04:13:37;;;;;;;56.13;29.88;;;8.90;99.90;;;;;;4966496;28;20131;-74
2023/04/09 04:16:07;;;;;;;49.75;28.73;;;8.90;99.90;;;;;;4967764;28;20069;-74
2023/04/09 04:18:32;;;;;;;50.20;27.83;;;8.90;99.90;;;;;;4989899;28;20128;-74
2023/04/09 04:20:58;;;;;;;47.75;28.17;;;8.80;99.90;;;;;;4975149;28;20137;-74
2023/04/09 04:23:23;;;;;;;51.10;29.15;;;8.90;99.90;;;;;;4991682;28;20093;-74
2023/04/09 04:25:49;;;;;;;51.30;28.35;;;8.90;99.90;;;;;;4966400;28;20039;-74
2023/04/09 04:28:15;;;;;;;50.70;29.38;;;8.90;99.90;;;;;;4984882;28;20042;-75
2023/04/09 04:30:41;;;;;;;49.72;28.20;;;8.90;99.90;;;;;;4946217;28;20063;-74
2023/04/09 04:33:07;;;;;;;49.00;27.70;;;8.90;99.90;;;;;;4968512;28;20407;-75
2023/04/09 04:35:33;;;;;;;44.75;27.10;;;8.90;99.90;;;;;;4989714;28;20049;-74
2023/04/09 04:38:01;;;;;;;48.47;27.75;;;8.80;99.90;;;;;;4948761;28;20050;-74
2023/04/09 04:40:27;;;;;;;48.30;27.33;;;8.80;99.90;;;;;;4966676;28;20074;-74
2023/04/09 04:42:52;;;;;;;52.95;29.05;;;8.80;99.90;;;;;;4974472;28;20088;-74
2023/04/09 04:45:18;;;;;;;48.63;26.48;;;8.90;99.90;;;;;;4982890;28;20046;-74
2023/04/09 04:47:43;;;;;;;48.33;27.73;;;8.80;99.90;;;;;;4954496;28;20097;-74
2023/04/09 04:50:09;;;;;;;46.20;26.48;;;8.80;99.90;;;;;;4947042;28;20041;-75
2023/04/09 04:52:35;;;;;;;45.13;26.90;;;8.80;99.90;;;;;;4966382;28;20065;-75
2023/04/09 04:55:01;;;;;;;48.60;27.65;;;8.80;99.90;;;;;;4970130;28;20129;-74
2023/04/09 04:57:26;;;;;;;50.28;28.45;;;8.80;99.90;;;;;;4972482;28;20137;-74
2023/04/09 04:59:52;;;;;;;53.38;29.30;;;8.80;99.90;;;;;;4961234;28;20582;-75
2023/04/09 05:02:18;;;;;;;50.85;28.05;;;8.80;99.90;;;;;;4965339;28;20046;-74
2023/04/09 05:04:43;;;;;;;46.92;26.35;;;8.80;99.90;;;;;;4979464;28;20045;-74
2023/04/09 05:07:09;;;;;;;52.10;29.45;;;8.80;99.90;;;;;;4977630;28;20031;-75
2023/04/09 05:09:34;;;;;;;49.33;28.75;;;8.80;99.90;;;;;;4971731;28;20133;-74
2023/04/09 05:12:00;;;;;;;50.63;27.90;;;8.80;99.90;;;;;;4956593;28;20046;-75
2023/04/09 05:14:26;;;;;;;48.42;27.63;;;8.80;99.90;;;;;;4960943;28;20046;-74
2023/04/09 05:16:51;;;;;;;50.53;28.00;;;8.80;99.90;;;;;;4962348;28;20042;-74
2023/04/09 05:19:17;;;;;;;53.25;28.45;;;8.80;99.90;;;;;;4957615;28;20043;-74
2023/04/09 05:21:42;;;;;;;52.13;28.25;;;8.80;99.90;;;;;;4952292;28;20038;-74
2023/04/09 05:24:08;;;;;;;50.55;28.45;;;8.80;99.90;;;;;;4979589;28;20042;-74
2023/04/09 05:26:33;;;;;;;48.40;27.80;;;8.80;99.90;;;;;;4967789;28;20062;-74
2023/04/09 05:28:59;;;;;;;51.05;28.85;;;8.80;99.90;;;;;;4977416;28;20034;-74
2023/04/09 05:31:25;;;;;;;49.60;28.23;;;8.80;99.90;;;;;;4975958;28;20105;-74
2023/04/09 05:33:51;;;;;;;54.47;28.27;;;8.80;99.90;;;;;;4973680;28;20042;-74
2023/04/09 05:36:18;;;;;;;46.17;26.00;;;8.90;99.90;;;;;;4962741;28;20046;-74
2023/04/09 05:38:45;;;;;;;48.88;28.00;;;8.80;99.90;;;;;;4950458;28;20046;-74
2023/04/09 05:41:11;;;;;;;49.63;27.25;;;8.80;99.90;;;;;;4962745;28;20038;-74
2023/04/09 05:43:37;;;;;;;47.70;27.15;;;8.80;99.90;;;;;;4985772;28;20481;-74
2023/04/09 05:46:03;;;;;;;47.65;27.85;;;8.80;99.90;;;;;;4970596;28;20039;-74
2023/04/09 05:48:28;;;;;;;49.80;26.55;;;8.80;99.90;;;;;;4969321;28;20082;-74
2023/04/09 05:50:54;;;;;;;47.20;26.55;;;8.90;99.90;;;;;;4978789;28;20066;-74
2023/04/09 05:53:20;;;;;;;44.50;25.98;;;8.90;99.90;;;;;;4965671;28;20537;-74
2023/04/09 05:55:48;;;;;;;48.00;26.85;;;8.90;99.90;;;;;;4973343;28;20491;-74
2023/04/09 05:58:14;;;;;;;47.17;26.02;;;8.90;99.90;;;;;;4979633;28;20045;-74
2023/04/09 06:00:41;;;;;;;41.75;24.67;;;8.90;99.90;;;;;;4993295;28;20556;-74
2023/04/09 06:03:07;;;;;;;45.60;25.60;;;8.90;99.90;;;;;;4969354;28;20439;-76
2023/04/09 06:05:33;;;;;;;42.75;24.85;;;8.90;99.90;;;;;;4977232;28;20050;-74
2023/04/09 06:07:58;;;;;;;43.88;25.90;;;8.90;99.90;;;;;;4975883;28;20040;-74
2023/04/09 06:10:24;;;;;;;46.53;26.52;;;8.90;99.90;;;;;;4978686;28;20054;-74
2023/04/09 06:12:50;;;;;;;44.28;24.73;;;8.90;99.90;;;;;;4973754;28;20066;-74
2023/04/09 06:15:15;;;;;;;42.25;24.25;;;8.90;99.90;;;;;;4985504;28;20031;-74
2023/04/09 06:17:41;;;;;;;41.08;24.83;;;8.90;99.90;;;;;;4948610;28;20030;-74
2023/04/09 06:20:07;;;;;;;41.17;23.70;;;8.90;99.90;;;;;;4976666;28;20049;-74
2023/04/09 06:22:32;;;;;;;42.35;25.17;;;8.90;99.90;;;;;;4957667;28;20034;-74
2023/04/09 06:24:58;;;;;;;43.58;24.60;;;8.90;99.90;;;;;;4981663;28;20128;-74
2023/04/09 06:27:25;;;;;;;42.85;25.42;;;9.00;99.90;;;;;;4969896;28;20122;-74
2023/04/09 06:29:51;;;;;;;43.42;25.63;;;9.00;99.90;;;;;;4974410;28;20046;-74
2023/04/09 06:32:16;;;;;;;44.72;26.40;;;9.00;99.90;;;;;;4985889;28;20039;-74
2023/04/09 06:34:42;;;;;;;47.42;26.48;;;9.00;99.90;;;;;;4982654;28;20467;-74
2023/04/09 06:37:07;;;;;;;42.50;25.90;;;9.00;99.90;;;;;;4958238;28;20092;-74
2023/04/09 06:39:33;;;;;;;43.30;25.10;;;9.10;99.90;;;;;;4963768;28;20084;-74
2023/04/09 06:41:58;;;;;;;44.28;26.48;;;9.10;99.90;;;;;;4969996;28;20491;-74
2023/04/09 06:44:24;;;;;;;43.28;25.83;;;9.20;99.90;;;;;;4965978;28;20081;-74
2023/04/09 06:46:50;;;;;;;40.90;24.38;;;9.20;99.90;;;;;;4968009;28;20049;-74
2023/04/09 06:49:15;;;;;;;44.10;25.48;;;9.10;99.90;;;;;;4969169;28;20042;-74
2023/04/09 06:51:41;;;;;;;41.08;25.92;;;9.10;99.90;;;;;;4981221;28;20398;-73
2023/04/09 06:54:07;;;;;;;45.28;26.50;;;9.10;99.90;;;;;;4961866;28;20065;-74
2023/04/09 06:56:33;;;;;;;42.95;24.73;;;9.20;99.90;;;;;;4970135;28;20046;-74
2023/04/09 06:58:58;;;;;;;44.08;26.05;;;9.20;99.90;;;;;;4977282;28;20046;-74
2023/04/09 07:01:25;;;;;;;42.67;25.48;;;9.20;99.90;;;;;;4973778;28;20094;-74
2023/04/09 07:03:50;;;;;;;40.67;24.60;;;9.20;99.90;;;;;;4967725;28;20080;-74
2023/04/09 07:06:16;;;;;;;41.50;24.20;;;9.20;99.90;;;;;;4971814;28;20038;-74
2023/04/09 07:08:42;;;;;;;42.13;25.58;;;9.20;99.90;;;;;;4977053;28;20379;-74
2023/04/09 07:11:07;;;;;;;42.45;24.88;;;9.20;99.90;;;;;;4978307;28;20042;-74
2023/04/09 07:13:33;;;;;;;44.25;25.55;;;9.20;99.90;;;;;;4988754;28;20546;-74
2023/04/09 07:15:58;;;;;;;42.78;25.40;;;9.20;99.90;;;;;;4968304;28;20096;-73
2023/04/09 07:18:24;;;;;;;43.78;25.15;;;9.20;99.90;;;;;;4971674;28;20048;-74
2023/04/09 07:20:51;;;;;;;42.83;25.42;;;9.20;99.90;;;;;;4978754;28;20090;-73
2023/04/09 07:23:16;;;;;;;43.83;26.00;;;9.20;99.90;;;;;;4968834;28;20211;-74
2023/04/09 07:25:42;;;;;;;42.33;25.70;;;9.20;99.90;;;;;;4960594;28;20097;-74
2023/04/09 07:28:08;;;;;;;43.10;26.40;;;9.30;99.90;;;;;;4969200;28;20414;-74
2023/04/09 07:30:34;;;;;;;44.25;25.55;;;9.30;99.90;;;;;;4972135;28;20126;-74
2023/04/09 07:32:59;;;;;;;45.83;25.38;;;9.40;99.90;;;;;;4954996;28;20046;-74
2023/04/09 07:35:25;;;;;;;41.38;24.17;;;9.40;99.90;;;;;;4982777;28;20042;-75
2023/04/09 07:37:50;;;;;;;42.20;24.80;;;9.50;99.90;;;;;;4973050;28;20046;-75
2023/04/09 07:40:16;;;;;;;38.10;24.25;;;9.50;99.90;;;;;;4970938;28;20030;-75
2023/04/09 07:42:42;;;;;;;40.28;24.88;;;9.60;99.90;;;;;;4972219;28;20069;-74
2023/04/09 07:45:08;;;;;;;40.83;23.98;;;9.60;99.90;;;;;;4955383;28;20149;-74
2023/04/09 07:47:34;;;;;;;38.67;24.13;;;9.60;99.90;;;;;;4977035;28;20046;-74
2023/04/09 07:49:59;;;;;;;39.65;22.98;;;9.60;99.90;;;;;;4970842;28;20471;-74
2023/04/09 07:52:25;;;;;;;34.42;22.48;;;9.70;99.90;;;;;;4958536;28;20039;-75
2023/04/09 07:54:50;;;;;;;36.22;22.10;;;9.70;99.90;;;;;;4982953;28;20053;-74
2023/04/09 07:57:16;;;;;;;39.53;23.20;;;9.70;99.90;;;;;;4970353;28;20031;-74
2023/04/09 07:59:41;;;;;;;37.85;23.33;;;9.80;99.90;;;;;;4973640;28;20088;-75
2023/04/09 08:02:07;;;;;;;37.28;23.63;;;9.90;99.90;;;;;;4966402;28;20049;-74
2023/04/09 08:04:33;;;;;;;36.05;22.33;;;9.90;99.90;;;;;;4969552;28;20053;-74
2023/04/09 08:06:58;;;;;;;38.75;22.75;;;9.90;99.90;;;;;;4967309;28;20043;-74
2023/04/09 08:09:24;;;;;;;33.65;22.40;;;10.00;99.90;;;;;;4969622;28;20030;-74
2023/04/09 08:11:50;;;;;;;38.55;24.20;;;10.00;99.90;;;;;;4963610;28;20097;-74
2023/04/09 08:14:17;;;;;;;38.42;23.58;;;10.00;99.90;;;;;;4968711;28;20042;-74
2023/04/09 08:16:45;;;;;;;39.17;24.38;;;10.00;99.90;;;;;;4961309;28;20058;-74
2023/04/09 08:19:11;;;;;;;36.03;22.80;;;10.10;99.90;;;;;;4967130;28;20074;-74
2023/04/09 08:21:38;;;;;;;40.15;24.02;;;10.20;99.90;;;;;;4964918;28;20499;-74
2023/04/09 08:24:04;;;;;;;40.17;24.08;;;10.20;99.90;;;;;;4982355;28;20030;-75
2023/04/09 08:26:30;;;;;;;37.63;22.98;;;10.20;99.90;;;;;;4953321;28;20122;-74
2023/04/09 08:28:56;;;;;;;38.58;24.02;;;10.20;99.90;;;;;;4972068;28;20034;-74
2023/04/09 08:31:22;;;;;;;40.13;23.30;;;10.30;99.90;;;;;;4963295;28;20062;-74
2023/04/09 08:33:48;;;;;;;37.42;23.50;;;10.40;99.90;;;;;;4974424;28;20073;-74
2023/04/09 08:36:13;;;;;;;38.35;23.92;;;10.50;99.90;;;;;;4953800;28;20039;-74
2023/04/09 08:38:39;;;;;;;39.97;25.38;;;10.50;99.90;;;;;;4958717;28;20047;-74
2023/04/09 08:41:05;;;;;;;37.88;23.77;;;10.60;99.90;;;;;;4963318;28;20142;-74
2023/04/09 08:43:32;;;;;;;37.88;23.73;;;10.70;99.90;;;;;;4960881;28;20050;-74
2023/04/09 08:45:58;;;;;;;41.22;25.20;;;10.80;99.90;;;;;;4974131;28;20048;-74
2023/04/09 08:48:24;;;;;;;38.85;24.20;;;10.90;99.90;;;;;;4973819;28;20034;-74
2023/04/09 08:50:50;;;;;;;36.78;24.15;;;10.90;99.90;;;;;;4961709;28;20391;-74
2023/04/09 08:53:16;;;;;;;39.80;23.30;;;11.00;99.90;;;;;;4985528;28;20089;-74
2023/04/09 08:55:45;;;;;;;39.08;23.40;;;11.10;99.90;;;;;;4972765;28;20100;-74
2023/04/09 08:58:10;;;;;;;39.42;24.90;;;11.20;99.90;;;;;;4954924;28;20121;-74
2023/04/09 09:00:36;;;;;;;39.20;24.60;;;11.20;99.90;;;;;;4974230;28;20166;-74
2023/04/09 09:03:08;;;;;;;38.08;23.63;;;11.30;99.90;;;;;;4965773;28;20047;-74
2023/04/09 09:05:41;;;;;;;36.00;23.33;;;11.40;99.90;;;;;;4971591;28;20052;-74
2023/04/09 09:08:12;;;;;;;38.08;22.98;;;11.40;99.90;;;;;;4976189;28;20635;-74
2023/04/09 09:10:40;;;;;;;41.13;23.20;;;11.40;99.90;;;;;;4968351;28;20058;-74
2023/04/09 09:13:15;;;;;;;40.10;24.40;;;11.60;99.90;;;;;;4959902;28;20509;-74
2023/04/09 09:15:41;;;;;;;33.88;21.70;;;11.80;99.90;;;;;;4957586;28;20127;-74
2023/04/09 09:20:33;;;;;;;36.10;23.15;;;12.10;99.90;;;;;;4985872;22;20121;-75
2023/04/09 09:22:59;;;;;;;42.20;23.58;;;12.20;99.90;;;;;;4967812;28;20379;-74
2023/04/09 09:25:24;;;;;;;35.58;23.23;;;12.40;99.90;;;;;;4943347;29;20046;-74
2023/04/09 09:27:51;;;;;;;35.70;22.50;;;13.00;99.90;;;;;;4941651;28;20046;-74
2023/04/09 09:30:25;;;;;;;33.88;22.73;;;12.80;99.90;;;;;;4938111;29;20662;-74
2023/04/09 09:33:08;;;;;;;36.40;23.25;;;13.00;99.90;;;;;;4941751;28;20142;-74
2023/04/09 09:35:48;;;;;;;37.90;24.23;;;13.20;99.90;;;;;;4941301;28;20799;-74
2023/04/09 09:38:15;;;;;;;37.17;23.13;;;13.40;99.90;;;;;;4961832;28;20043;-74
2023/04/09 09:40:40;;;;;;;35.72;23.58;;;13.60;99.90;;;;;;4941988;28;20051;-74
2023/04/09 09:43:06;;;;;;;35.53;23.35;;;13.80;99.90;;;;;;4941748;28;20125;-74
2023/04/09 09:45:32;;;;;;;31.80;22.13;;;13.90;99.90;;;;;;4946675;28;20051;-75
2023/04/09 09:47:58;;;;;;;34.58;23.00;;;14.00;99.90;;;;;;4930305;29;20043;-74
2023/04/09 09:50:25;;;;;;;32.95;23.20;;;14.20;99.90;;;;;;4919303;29;20407;-74
2023/04/09 09:52:57;;;;;;;35.42;23.80;;;14.10;99.90;;;;;;4957915;28;20110;-74
2023/04/09 09:55:25;;;;;;;35.83;23.45;;;14.00;99.90;;;;;;4951511;28;20464;-74
2023/04/09 09:57:53;;;;;;;36.15;23.65;;;14.10;99.90;;;;;;4934788;28;20547;-74
2023/04/09 10:00:24;;;;;;;34.00;24.20;;;14.20;99.90;;;;;;4941972;28;20541;-74
2023/04/09 10:02:58;;;;;;;36.95;23.90;;;14.20;99.90;;;;;;4952751;28;20070;-74
2023/04/09 10:05:26;;;;;;;30.92;22.13;;;14.50;99.90;;;;;;4936548;29;20039;-74
2023/04/09 10:08:00;;;;;;;34.92;22.90;;;14.60;99.90;;;;;;4940575;28;20047;-74
2023/04/09 10:10:26;;;;;;;32.28;21.17;;;14.80;99.90;;;;;;4949146;28;20051;-74
2023/04/09 10:12:52;;;;;;;29.98;21.48;;;14.80;99.90;;;;;;4951256;28;20098;-75
2023/04/09 10:15:18;;;;;;;30.10;21.13;;;14.80;99.90;;;;;;4936221;29;20034;-75
2023/04/09 10:17:45;;;;;;;29.27;21.15;;;14.70;99.90;;;;;;4941645;29;20114;-74
2023/04/09 10:20:15;;;;;;;29.65;21.48;;;14.70;99.90;;;;;;4936204;29;20043;-74
2023/04/09 10:22:44;;;;;;;28.98;20.92;;;14.60;99.90;;;;;;4939445;28;20530;-75
2023/04/09 10:25:12;;;;;;;32.03;22.20;;;14.70;99.90;;;;;;4936081;29;20051;-74
2023/04/09 10:27:38;;;;;;;30.05;20.23;;;15.00;99.90;;;;;;4936454;28;20086;-73
2023/04/09 10:30:06;;;;;;;28.60;20.23;;;14.90;99.90;;;;;;4937263;29;20047;-75
2023/04/09 10:32:34;;;;;;;29.60;20.40;;;14.80;99.90;;;;;;4943922;28;20054;-76
2023/04/09 10:35:02;;;;;;;30.90;21.58;;;14.70;99.90;;;;;;4940781;28;20047;-75
2023/04/09 10:37:28;;;;;;;29.67;21.17;;;14.80;99.90;;;;;;4937118;28;20043;-77
2023/04/09 10:39:55;;;;;;;33.80;22.08;;;14.80;99.90;;;;;;4940486;28;20053;-75
2023/04/09 10:42:30;;;;;;;30.83;20.77;;;14.80;99.90;;;;;;4947955;29;20721;-75
2023/04/09 10:45:13;;;;;;;28.50;20.80;;;14.90;99.90;;;;;;4954911;28;20047;-74
2023/04/09 10:47:41;;;;;;;31.20;21.27;;;15.10;99.90;;;;;;4958010;28;20055;-74
2023/04/09 10:50:17;;;;;;;27.80;19.77;;;15.30;99.90;;;;;;4944973;28;20461;-74
2023/04/09 10:52:43;;;;;;;28.27;20.95;;;15.40;99.90;;;;;;4940765;28;20135;-74
2023/04/09 10:55:28;;;;;;;28.83;22.13;;;15.50;99.90;;;;;;4949056;28;20125;-74
2023/04/09 10:57:54;;;;;;;30.60;22.13;;;15.40;99.90;;;;;;4929625;28;20061;-76
2023/04/09 11:00:20;;;;;;;30.52;20.90;;;15.10;99.90;;;;;;4931485;29;20043;-75
2023/04/09 11:03:01;;;;;;;29.80;21.83;;;15.10;99.90;;;;;;4936482;28;20039;-74
2023/04/09 11:05:31;;;;;;;30.85;22.20;;;15.00;99.90;;;;;;4942846;28;20130;-74
2023/04/09 11:08:08;;;;;;;30.40;21.38;;;14.90;99.90;;;;;;4953204;28;20046;-74
2023/04/09 11:10:34;;;;;;;30.02;21.50;;;14.70;99.90;;;;;;4934423;28;20035;-74
2023/04/09 11:13:00;;;;;;;28.67;21.00;;;14.60;99.90;;;;;;4930059;29;20062;-74
2023/04/09 11:15:26;;;;;;;29.17;20.50;;;14.40;99.90;;;;;;4954194;28;20066;-74
2023/04/09 11:17:52;;;;;;;30.13;20.88;;;14.30;99.90;;;;;;4946513;28;20521;-74
2023/04/09 11:20:22;;;;;;;32.03;21.33;;;14.20;99.90;;;;;;4954706;28;20138;-74
2023/04/09 11:22:50;;;;;;;27.85;20.15;;;14.30;99.90;;;;;;4936475;29;20036;-74
2023/04/09 11:25:24;;;;;;;28.23;19.05;;;14.60;99.90;;;;;;4951312;28;20062;-74
2023/04/09 11:27:49;;;;;;;29.27;19.48;;;14.90;99.90;;;;;;4950177;28;20050;-75
2023/04/09 11:30:15;;;;;;;27.90;19.63;;;15.40;99.90;;;;;;4962475;28;20036;-76
2023/04/09 11:32:41;;;;;;;27.92;19.00;;;15.70;99.90;;;;;;4946511;28;20514;-74
2023/04/09 11:35:15;;;;;;;28.02;18.55;;;16.00;99.90;;;;;;4936997;29;20035;-74
2023/04/09 11:37:42;;;;;;;21.65;16.48;;;16.30;99.90;;;;;;4920790;28;20049;-75
2023/04/09 11:40:32;;;;;;;22.60;16.35;;;16.40;99.90;;;;;;4943185;28;20050;-75
2023/04/09 11:42:57;;;;;;;21.92;16.35;;;16.30;99.90;;;;;;4937708;29;20101;-76
2023/04/09 11:45:28;;;;;;;20.90;15.32;;;16.10;99.90;;;;;;4960494;28;20086;-75
2023/04/09 11:47:55;;;;;;;20.77;15.27;;;16.00;99.90;;;;;;4958087;28;20047;-74
2023/04/09 11:50:21;;;;;;;25.58;15.05;;;15.90;99.90;;;;;;4939442;28;20353;-74
2023/04/09 11:52:47;;;;;;;20.92;14.95;;;15.90;99.90;;;;;;4941668;28;20040;-75
2023/04/09 11:55:23;;;;;;;21.75;15.13;;;16.00;99.90;;;;;;4955865;28;20039;-74
2023/04/09 11:57:51;;;;;;;20.25;14.82;;;16.10;99.90;;;;;;4939961;28;20039;-74
2023/04/09 12:00:18;;;;;;;20.42;14.95;;;16.20;99.90;;;;;;4953153;28;20057;-74
2023/04/09 12:02:45;;;;;;;22.10;15.27;;;16.40;99.90;;;;;;4939349;28;20031;-75
2023/04/09 12:05:23;;;;;;;20.73;14.68;;;16.40;99.90;;;;;;4958969;28;20062;-75
2023/04/09 12:07:49;;;;;;;17.67;13.23;;;16.50;99.90;;;;;;4937846;29;20075;-75
2023/04/09 12:10:15;;;;;;;20.38;14.68;;;16.60;99.90;;;;;;4943912;28;20035;-75
2023/04/09 12:12:42;;;;;;;20.58;14.88;;;16.60;99.90;;;;;;4962703;28;20046;-74
2023/04/09 12:15:21;;;;;;;19.98;14.93;;;16.70;99.90;;;;;;4936888;28;20129;-74
2023/04/09 12:17:52;;;;;;;18.95;13.85;;;16.80;99.90;;;;;;4955757;28;20478;-74
2023/04/09 12:20:30;;;;;;;18.92;13.52;;;16.90;99.90;;;;;;4928087;29;20046;-74
2023/04/09 12:22:57;;;;;;;20.08;13.82;;;16.90;99.90;;;;;;4933456;28;20039;-74
2023/04/09 12:25:23;;;;;;;19.27;13.30;;;16.90;99.90;;;;;;4951096;28;20039;-74
2023/04/09 12:27:48;;;;;;;17.58;12.38;;;16.70;99.90;;;;;;4949113;28;20042;-74
2023/04/09 12:30:14;;;;;;;20.10;13.13;;;16.60;99.90;;;;;;4939188;28;20447;-74
2023/04/09 12:32:41;;;;;;;19.65;13.85;;;16.50;99.90;;;;;;4928472;29;20074;-74
2023/04/09 12:35:07;;;;;;;17.52;13.30;;;16.40;99.90;;;;;;4952319;28;20559;-76
2023/04/09 12:37:33;;;;;;;19.38;14.23;;;16.40;99.90;;;;;;4937665;28;20130;-74